BCS8342 EDDK-LEMD
Flight info
| Callsign | BCS8342 |
|---|---|
| Flight time | 2h 16m |
| Altitude | 38000 |
| Route | NVO2R NVO Y868 SOGRI UM617 CIV/N0453F350 N872 MEDIL DCT KOVIN DCT DUCRA UM728 RESMI UN857 DISAK DCT ARKIP DCT ARNAV DCT LMG DCT UVELI DCT OSMOB DCT ARVID T424 PPN N10 BANEV |
| Aircraft | B738/M-SDE2E3FGHIRWXY/LB1 |
Departure
| Time | 2026-05-04 15:20 |
|---|---|
| Airport | Cologne Bonn Airport (EDDK) |
Arrival
| Time | 2026-05-04 17:36 |
|---|---|
| Airport | Adolfo Suárez Madrid–Barajas Airport (LEMD) |
| Time | Latitude | Longitude | Altitude | Speed | Heading |
|---|---|---|---|---|---|
| 2026-05-04 13:54 | 50.87693 | 7.12394 | 237 ft | 0 kts | 288° |
| 2026-05-04 15:11 | 50.87691 | 7.12400 | 237 ft | 2 kts | 288° |
| 2026-05-04 15:11 | 50.87686 | 7.12425 | 237 ft | 2 kts | 288° |
| 2026-05-04 15:11 | 50.87680 | 7.12456 | 237 ft | 3 kts | 288° |
| 2026-05-04 15:11 | 50.87672 | 7.12484 | 237 ft | 2 kts | 319° |
| 2026-05-04 15:12 | 50.87657 | 7.12492 | 237 ft | 2 kts | 8° |
| 2026-05-04 15:12 | 50.87650 | 7.12489 | 237 ft | 0 kts | 18° |
| 2026-05-04 15:14 | 50.87664 | 7.12497 | 238 ft | 4 kts | 18° |
| 2026-05-04 15:15 | 50.87701 | 7.12515 | 238 ft | 7 kts | 18° |
| 2026-05-04 15:15 | 50.87759 | 7.12545 | 238 ft | 11 kts | 18° |
| 2026-05-04 15:15 | 50.87841 | 7.12586 | 238 ft | 13 kts | 16° |
| 2026-05-04 15:16 | 50.87998 | 7.12763 | 237 ft | 0 kts | 70° |
| 2026-05-04 15:17 | 50.88000 | 7.12772 | 236 ft | 4 kts | 71° |
| 2026-05-04 15:18 | 50.88009 | 7.12829 | 237 ft | 7 kts | 79° |
| 2026-05-04 15:18 | 50.88017 | 7.12932 | 238 ft | 9 kts | 93° |
| 2026-05-04 15:18 | 50.88006 | 7.12964 | 238 ft | 0 kts | 131° |
| 2026-05-04 15:19 | 50.87961 | 7.13040 | 240 ft | 11 kts | 138° |
| 2026-05-04 15:19 | 50.87778 | 7.13302 | 244 ft | 68 kts | 137° |
| 2026-05-04 15:19 | 50.86488 | 7.15144 | 367 ft | 167 kts | 140° |
| 2026-05-04 15:20 | 50.85624 | 7.16364 | 1076 ft | 166 kts | 140° |
| 2026-05-04 15:20 | 50.84688 | 7.17426 | 1882 ft | 160 kts | 144° |
| 2026-05-04 15:20 | 50.83819 | 7.18642 | 2403 ft | 179 kts | 141° |
| 2026-05-04 15:20 | 50.82835 | 7.20068 | 2653 ft | 204 kts | 140° |
| 2026-05-04 15:21 | 50.81829 | 7.21807 | 2864 ft | 226 kts | 122° |
| 2026-05-04 15:21 | 50.81335 | 7.24211 | 3329 ft | 236 kts | 99° |
| 2026-05-04 15:21 | 50.80996 | 7.29367 | 4743 ft | 238 kts | 100° |
| 2026-05-04 15:22 | 50.81091 | 7.32009 | 5376 ft | 249 kts | 70° |
| 2026-05-04 15:22 | 50.82103 | 7.34254 | 6057 ft | 256 kts | 39° |
| 2026-05-04 15:22 | 50.85434 | 7.36247 | 7405 ft | 262 kts | 6° |
| 2026-05-04 15:23 | 50.87260 | 7.36073 | 7839 ft | 273 kts | 342° |
| 2026-05-04 15:23 | 50.89107 | 7.35025 | 8140 ft | 289 kts | 328° |
| 2026-05-04 15:23 | 50.90547 | 7.32949 | 8728 ft | 285 kts | 296° |
| 2026-05-04 15:23 | 50.91168 | 7.30031 | 9450 ft | 279 kts | 273° |
| 2026-05-04 15:24 | 50.90661 | 7.23892 | 10377 ft | 297 kts | 255° |
| 2026-05-04 15:24 | 50.89686 | 7.17052 | 10710 ft | 339 kts | 255° |
| 2026-05-04 15:25 | 50.89176 | 7.13450 | 11055 ft | 351 kts | 255° |
| 2026-05-04 15:25 | 50.88647 | 7.09651 | 11681 ft | 355 kts | 255° |
| 2026-05-04 15:25 | 50.88128 | 7.05847 | 12389 ft | 361 kts | 256° |
| 2026-05-04 15:26 | 50.87039 | 6.97929 | 13622 ft | 371 kts | 256° |
| 2026-05-04 15:26 | 50.86489 | 6.93926 | 14288 ft | 373 kts | 256° |
| 2026-05-04 15:26 | 50.85377 | 6.85849 | 15680 ft | 378 kts | 256° |
| 2026-05-04 15:27 | 50.84813 | 6.81764 | 16375 ft | 381 kts | 255° |
| 2026-05-04 15:27 | 50.83709 | 6.73796 | 17677 ft | 387 kts | 255° |
| 2026-05-04 15:28 | 50.83158 | 6.69842 | 18275 ft | 390 kts | 255° |
| 2026-05-04 15:28 | 50.82571 | 6.65640 | 18814 ft | 392 kts | 255° |
| 2026-05-04 15:28 | 50.82195 | 6.56966 | 19871 ft | 401 kts | 270° |
| 2026-05-04 15:29 | 50.82322 | 6.52533 | 20306 ft | 406 kts | 270° |
| 2026-05-04 15:30 | 50.82624 | 6.34546 | 22288 ft | 415 kts | 268° |
| 2026-05-04 15:30 | 50.82750 | 6.20741 | 23660 ft | 422 kts | 268° |
| 2026-05-04 15:31 | 50.82828 | 6.11410 | 24429 ft | 426 kts | 267° |
| 2026-05-04 15:31 | 50.82865 | 6.06723 | 24822 ft | 428 kts | 267° |
| 2026-05-04 15:32 | 50.82832 | 5.92586 | 25872 ft | 433 kts | 265° |
| 2026-05-04 15:32 | 50.82625 | 5.83045 | 26566 ft | 436 kts | 264° |
| 2026-05-04 15:33 | 50.82386 | 5.73421 | 27215 ft | 440 kts | 264° |
| 2026-05-04 15:34 | 50.82040 | 5.58902 | 28108 ft | 447 kts | 264° |
| 2026-05-04 15:34 | 50.81918 | 5.53975 | 28352 ft | 449 kts | 264° |
| 2026-05-04 15:34 | 50.81671 | 5.44089 | 29023 ft | 450 kts | 264° |
| 2026-05-04 15:35 | 50.81419 | 5.34251 | 29926 ft | 445 kts | 263° |
| 2026-05-04 15:35 | 50.81290 | 5.29368 | 30303 ft | 444 kts | 263° |
| 2026-05-04 15:35 | 50.81159 | 5.24498 | 30636 ft | 443 kts | 263° |
| 2026-05-04 15:36 | 50.80895 | 5.14876 | 31328 ft | 440 kts | 263° |
| 2026-05-04 15:36 | 50.80758 | 5.10027 | 31528 ft | 442 kts | 263° |
| 2026-05-04 15:36 | 50.80575 | 5.05177 | 31776 ft | 441 kts | 259° |
| 2026-05-04 15:37 | 50.79977 | 5.00480 | 32151 ft | 432 kts | 249° |
| 2026-05-04 15:37 | 50.79077 | 4.95982 | 32624 ft | 427 kts | 249° |
| 2026-05-04 15:37 | 50.78203 | 4.91509 | 33002 ft | 425 kts | 249° |
| 2026-05-04 15:37 | 50.77352 | 4.87035 | 33276 ft | 425 kts | 249° |
| 2026-05-04 15:38 | 50.76507 | 4.82534 | 33417 ft | 429 kts | 249° |
| 2026-05-04 15:38 | 50.75673 | 4.78070 | 33635 ft | 429 kts | 249° |
| 2026-05-04 15:38 | 50.74832 | 4.73560 | 34006 ft | 427 kts | 249° |
| 2026-05-04 15:38 | 50.73994 | 4.69081 | 34314 ft | 425 kts | 249° |
| 2026-05-04 15:39 | 50.73152 | 4.64610 | 34483 ft | 426 kts | 250° |
| 2026-05-04 15:39 | 50.72301 | 4.60111 | 34623 ft | 429 kts | 250° |
| 2026-05-04 15:39 | 50.70586 | 4.51111 | 35119 ft | 428 kts | 250° |
| 2026-05-04 15:40 | 50.69724 | 4.46620 | 35351 ft | 428 kts | 250° |
| 2026-05-04 15:40 | 50.68860 | 4.42122 | 35547 ft | 429 kts | 250° |
| 2026-05-04 15:40 | 50.68005 | 4.37679 | 35735 ft | 429 kts | 250° |
| 2026-05-04 15:40 | 50.67137 | 4.33176 | 35942 ft | 429 kts | 250° |
| 2026-05-04 15:41 | 50.66268 | 4.28676 | 36109 ft | 430 kts | 250° |
| 2026-05-04 15:41 | 50.65395 | 4.24167 | 36273 ft | 431 kts | 250° |
| 2026-05-04 15:41 | 50.64518 | 4.19649 | 36442 ft | 431 kts | 250° |
| 2026-05-04 15:41 | 50.63641 | 4.15135 | 36640 ft | 431 kts | 250° |
| 2026-05-04 15:42 | 50.62763 | 4.10625 | 36813 ft | 431 kts | 250° |
| 2026-05-04 15:42 | 50.61880 | 4.06112 | 36980 ft | 431 kts | 250° |
| 2026-05-04 15:42 | 50.60997 | 4.01599 | 37166 ft | 431 kts | 250° |
| 2026-05-04 15:42 | 50.60126 | 3.97151 | 37366 ft | 431 kts | 251° |
| 2026-05-04 15:43 | 50.59241 | 3.92645 | 37505 ft | 431 kts | 251° |
| 2026-05-04 15:43 | 50.58282 | 3.88178 | 37624 ft | 430 kts | 243° |
| 2026-05-04 15:43 | 50.56653 | 3.84278 | 37762 ft | 427 kts | 225° |
| 2026-05-04 15:43 | 50.54391 | 3.81293 | 37957 ft | 425 kts | 212° |
| 2026-05-04 15:44 | 50.51753 | 3.79202 | 37965 ft | 427 kts | 203° |
| 2026-05-04 15:44 | 50.46235 | 3.75630 | 37973 ft | 429 kts | 204° |
| 2026-05-04 15:45 | 50.40782 | 3.71980 | 37963 ft | 428 kts | 204° |
| 2026-05-04 15:45 | 50.35327 | 3.68269 | 37970 ft | 427 kts | 204° |
| 2026-05-04 15:46 | 50.29882 | 3.64579 | 37966 ft | 426 kts | 204° |
| 2026-05-04 15:46 | 50.24438 | 3.60904 | 37964 ft | 426 kts | 204° |
| 2026-05-04 15:47 | 50.19041 | 3.57269 | 37967 ft | 425 kts | 204° |
| 2026-05-04 15:47 | 50.13601 | 3.53613 | 37958 ft | 426 kts | 204° |
| 2026-05-04 15:48 | 50.08169 | 3.49970 | 37965 ft | 426 kts | 204° |
| 2026-05-04 15:48 | 50.00001 | 3.44509 | 37964 ft | 426 kts | 204° |
| 2026-05-04 15:49 | 49.94579 | 3.40896 | 37971 ft | 427 kts | 204° |
| 2026-05-04 15:49 | 49.89108 | 3.37259 | 37975 ft | 428 kts | 204° |
| 2026-05-04 15:50 | 49.83627 | 3.33624 | 37970 ft | 429 kts | 204° |
| 2026-05-04 15:50 | 49.78137 | 3.29992 | 37973 ft | 429 kts | 204° |
| 2026-05-04 15:51 | 49.72676 | 3.26388 | 37963 ft | 430 kts | 204° |
| 2026-05-04 15:51 | 49.67172 | 3.22765 | 37967 ft | 430 kts | 204° |
| 2026-05-04 15:52 | 49.61678 | 3.19156 | 37967 ft | 429 kts | 204° |
| 2026-05-04 15:52 | 49.56181 | 3.15554 | 37964 ft | 429 kts | 204° |
| 2026-05-04 15:53 | 49.50693 | 3.11967 | 37973 ft | 429 kts | 204° |
| 2026-05-04 15:53 | 49.45501 | 3.07670 | 37989 ft | 427 kts | 214° |
| 2026-05-04 15:54 | 49.40592 | 3.02533 | 37974 ft | 427 kts | 214° |
| 2026-05-04 15:54 | 49.35656 | 2.97470 | 37965 ft | 427 kts | 213° |
| 2026-05-04 15:55 | 49.30700 | 2.92450 | 37964 ft | 427 kts | 213° |
| 2026-05-04 15:55 | 49.25765 | 2.87475 | 37958 ft | 427 kts | 213° |
| 2026-05-04 15:56 | 49.20800 | 2.82482 | 37965 ft | 427 kts | 213° |
| 2026-05-04 15:56 | 49.15839 | 2.77503 | 37955 ft | 427 kts | 213° |
| 2026-05-04 15:57 | 49.10868 | 2.72524 | 37952 ft | 427 kts | 213° |
| 2026-05-04 15:57 | 49.05898 | 2.67560 | 37942 ft | 427 kts | 213° |
| 2026-05-04 15:58 | 49.00928 | 2.62605 | 37953 ft | 427 kts | 213° |
| 2026-05-04 15:58 | 48.95980 | 2.57686 | 37941 ft | 428 kts | 213° |
| 2026-05-04 15:59 | 48.90999 | 2.52745 | 37940 ft | 427 kts | 213° |
| 2026-05-04 15:59 | 48.86022 | 2.47817 | 37939 ft | 427 kts | 213° |
| 2026-05-04 16:00 | 48.81051 | 2.42905 | 37939 ft | 426 kts | 213° |
| 2026-05-04 16:00 | 48.76923 | 2.38835 | 37946 ft | 426 kts | 213° |
| 2026-05-04 16:01 | 48.71144 | 2.33149 | 37944 ft | 426 kts | 213° |
| 2026-05-04 16:01 | 48.66168 | 2.28266 | 37946 ft | 426 kts | 213° |
| 2026-05-04 16:02 | 48.62023 | 2.24206 | 37945 ft | 428 kts | 213° |
| 2026-05-04 16:03 | 48.53139 | 2.17846 | 37938 ft | 429 kts | 193° |
| 2026-05-04 16:03 | 48.47292 | 2.16091 | 37947 ft | 428 kts | 193° |
| 2026-05-04 16:04 | 48.42450 | 2.14550 | 37944 ft | 428 kts | 193° |
| 2026-05-04 16:04 | 48.33728 | 2.11739 | 37937 ft | 427 kts | 193° |
| 2026-05-04 16:05 | 48.27861 | 2.10355 | 37928 ft | 429 kts | 182° |
| 2026-05-04 16:06 | 48.18963 | 2.12012 | 37926 ft | 431 kts | 174° |
| 2026-05-04 16:06 | 48.10111 | 2.12724 | 37939 ft | 425 kts | 190° |
| 2026-05-04 16:07 | 48.07186 | 2.12073 | 37939 ft | 425 kts | 190° |
| 2026-05-04 16:08 | 47.95417 | 2.09739 | 37949 ft | 428 kts | 189° |
| 2026-05-04 16:09 | 47.80641 | 2.06910 | 37922 ft | 430 kts | 189° |
| 2026-05-04 16:10 | 47.68810 | 2.04649 | 37912 ft | 430 kts | 189° |
| 2026-05-04 16:11 | 47.60119 | 2.01893 | 37929 ft | 424 kts | 204° |
| 2026-05-04 16:11 | 47.57389 | 2.00220 | 37913 ft | 424 kts | 203° |
| 2026-05-04 16:12 | 47.41001 | 1.90673 | 37927 ft | 421 kts | 202° |
| 2026-05-04 16:13 | 47.30128 | 1.84411 | 37909 ft | 420 kts | 202° |
| 2026-05-04 16:14 | 47.19244 | 1.78173 | 37921 ft | 419 kts | 202° |
| 2026-05-04 16:16 | 47.05624 | 1.70519 | 37916 ft | 420 kts | 202° |
| 2026-05-04 16:17 | 46.92005 | 1.62900 | 37934 ft | 421 kts | 202° |
| 2026-05-04 16:18 | 46.81039 | 1.56793 | 37912 ft | 422 kts | 202° |
| 2026-05-04 16:19 | 46.67340 | 1.49201 | 37909 ft | 422 kts | 202° |
| 2026-05-04 16:20 | 46.53644 | 1.41653 | 37904 ft | 422 kts | 202° |
| 2026-05-04 16:22 | 46.39929 | 1.34135 | 37904 ft | 421 kts | 202° |
| 2026-05-04 16:23 | 46.23542 | 1.25204 | 37906 ft | 420 kts | 201° |
| 2026-05-04 16:25 | 46.07153 | 1.16329 | 37926 ft | 419 kts | 201° |
| 2026-05-04 16:26 | 45.88125 | 1.06093 | 37911 ft | 416 kts | 201° |
| 2026-05-04 16:28 | 45.75850 | 0.95742 | 37901 ft | 415 kts | 219° |
| 2026-05-04 16:29 | 45.60390 | 0.77261 | 37933 ft | 416 kts | 219° |
| 2026-05-04 16:31 | 45.49237 | 0.64035 | 37915 ft | 418 kts | 219° |
| 2026-05-04 16:32 | 45.35782 | 0.48170 | 37918 ft | 421 kts | 219° |
| 2026-05-04 16:33 | 45.26752 | 0.37578 | 37936 ft | 421 kts | 219° |
| 2026-05-04 16:34 | 45.19959 | 0.29640 | 37923 ft | 422 kts | 219° |
| 2026-05-04 16:35 | 45.06395 | 0.13862 | 37927 ft | 421 kts | 219° |
| 2026-05-04 16:36 | 44.99625 | 0.06028 | 37925 ft | 420 kts | 218° |
| 2026-05-04 16:37 | 44.92840 | -0.01800 | 37946 ft | 420 kts | 218° |
| 2026-05-04 16:38 | 44.83778 | -0.12222 | 37938 ft | 421 kts | 218° |
| 2026-05-04 16:39 | 44.72420 | -0.25225 | 37938 ft | 423 kts | 218° |
| 2026-05-04 16:40 | 44.63091 | -0.35320 | 37931 ft | 424 kts | 208° |
| 2026-05-04 16:41 | 44.50005 | -0.44758 | 37942 ft | 425 kts | 208° |
| 2026-05-04 16:43 | 44.36945 | -0.54317 | 37956 ft | 425 kts | 208° |
| 2026-05-04 16:43 | 44.29092 | -0.60045 | 37961 ft | 424 kts | 208° |
| 2026-05-04 16:45 | 44.13425 | -0.71418 | 37965 ft | 424 kts | 208° |
| 2026-05-04 16:46 | 44.00338 | -0.80865 | 37968 ft | 424 kts | 208° |
| 2026-05-04 16:47 | 43.89858 | -0.88398 | 37992 ft | 428 kts | 208° |
| 2026-05-04 16:48 | 43.79242 | -0.95997 | 37994 ft | 430 kts | 208° |
| 2026-05-04 16:49 | 43.69082 | -1.03241 | 37994 ft | 430 kts | 208° |
| 2026-05-04 16:50 | 43.58463 | -1.10782 | 38006 ft | 428 kts | 208° |
| 2026-05-04 16:51 | 43.50519 | -1.16404 | 38019 ft | 428 kts | 208° |
| 2026-05-04 16:52 | 43.39985 | -1.23834 | 38016 ft | 425 kts | 209° |
| 2026-05-04 16:53 | 43.32096 | -1.29380 | 38017 ft | 424 kts | 209° |
| 2026-05-04 16:54 | 43.22283 | -1.36255 | 38014 ft | 422 kts | 209° |
| 2026-05-04 16:55 | 43.06657 | -1.47153 | 37999 ft | 421 kts | 209° |
| 2026-05-04 16:56 | 42.93633 | -1.56209 | 37996 ft | 422 kts | 209° |
| 2026-05-04 16:57 | 42.85773 | -1.61655 | 37998 ft | 424 kts | 209° |
| 2026-05-04 16:58 | 42.75272 | -1.68909 | 37992 ft | 425 kts | 209° |
| 2026-05-04 17:00 | 42.59314 | -1.79661 | 37964 ft | 428 kts | 208° |
| 2026-05-04 17:01 | 42.46059 | -1.88525 | 37969 ft | 424 kts | 208° |
| 2026-05-04 17:02 | 42.35496 | -1.95567 | 37954 ft | 422 kts | 209° |
| 2026-05-04 17:03 | 42.27651 | -2.00796 | 37966 ft | 420 kts | 209° |
| 2026-05-04 17:03 | 42.19786 | -2.06019 | 37965 ft | 420 kts | 209° |
| 2026-05-04 17:04 | 42.09330 | -2.12925 | 37970 ft | 421 kts | 209° |
| 2026-05-04 17:05 | 41.98805 | -2.19864 | 37865 ft | 424 kts | 209° |
| 2026-05-04 17:06 | 41.93456 | -2.23379 | 36757 ft | 426 kts | 209° |
| 2026-05-04 17:06 | 41.90805 | -2.25117 | 36215 ft | 424 kts | 209° |
| 2026-05-04 17:07 | 41.85544 | -2.28563 | 34972 ft | 424 kts | 209° |
| 2026-05-04 17:07 | 41.83754 | -2.29735 | 34556 ft | 424 kts | 209° |
| 2026-05-04 17:07 | 41.80234 | -2.32037 | 33605 ft | 426 kts | 209° |
| 2026-05-04 17:07 | 41.77576 | -2.33773 | 33090 ft | 422 kts | 209° |
| 2026-05-04 17:08 | 41.74949 | -2.35485 | 32542 ft | 418 kts | 210° |
| 2026-05-04 17:08 | 41.69805 | -2.38833 | 31737 ft | 405 kts | 210° |
| 2026-05-04 17:08 | 41.67281 | -2.40476 | 31293 ft | 401 kts | 210° |
| 2026-05-04 17:09 | 41.64819 | -2.42078 | 30806 ft | 398 kts | 210° |
| 2026-05-04 17:09 | 41.62334 | -2.43694 | 30320 ft | 395 kts | 210° |
| 2026-05-04 17:09 | 41.60009 | -2.45204 | 29861 ft | 393 kts | 210° |
| 2026-05-04 17:10 | 41.55140 | -2.48364 | 28725 ft | 387 kts | 210° |
| 2026-05-04 17:10 | 41.47942 | -2.53011 | 27325 ft | 374 kts | 210° |
| 2026-05-04 17:11 | 41.45618 | -2.54497 | 26999 ft | 368 kts | 210° |
| 2026-05-04 17:11 | 41.43359 | -2.55941 | 26618 ft | 364 kts | 210° |
| 2026-05-04 17:11 | 41.38829 | -2.58841 | 25769 ft | 358 kts | 210° |
| 2026-05-04 17:12 | 41.36591 | -2.60272 | 25354 ft | 356 kts | 210° |
| 2026-05-04 17:12 | 41.32153 | -2.62769 | 24511 ft | 360 kts | 193° |
| 2026-05-04 17:13 | 41.24652 | -2.62318 | 23220 ft | 363 kts | 180° |
| 2026-05-04 17:14 | 41.17155 | -2.61618 | 21923 ft | 356 kts | 180° |
| 2026-05-04 17:14 | 41.14688 | -2.61397 | 21503 ft | 354 kts | 180° |
| 2026-05-04 17:14 | 41.09809 | -2.60961 | 20676 ft | 349 kts | 181° |
| 2026-05-04 17:15 | 41.07395 | -2.60747 | 20306 ft | 348 kts | 181° |
| 2026-05-04 17:15 | 41.02573 | -2.60321 | 19521 ft | 354 kts | 180° |
| 2026-05-04 17:16 | 40.97611 | -2.59882 | 18713 ft | 361 kts | 180° |
| 2026-05-04 17:16 | 40.90152 | -2.59218 | 17350 ft | 355 kts | 180° |
| 2026-05-04 17:17 | 40.87698 | -2.59000 | 16931 ft | 352 kts | 180° |
| 2026-05-04 17:17 | 40.81088 | -2.60992 | 15825 ft | 323 kts | 222° |
| 2026-05-04 17:18 | 40.79465 | -2.63022 | 15430 ft | 320 kts | 228° |
| 2026-05-04 17:18 | 40.76421 | -2.67201 | 14896 ft | 308 kts | 228° |
| 2026-05-04 17:19 | 40.73540 | -2.71113 | 14619 ft | 291 kts | 227° |
| 2026-05-04 17:19 | 40.70789 | -2.74803 | 14379 ft | 276 kts | 227° |
| 2026-05-04 17:20 | 40.68158 | -2.78308 | 14145 ft | 262 kts | 227° |
| 2026-05-04 17:20 | 40.65652 | -2.81624 | 13907 ft | 250 kts | 225° |
| 2026-05-04 17:20 | 40.64240 | -2.82968 | 13698 ft | 252 kts | 213° |
| 2026-05-04 17:21 | 40.61260 | -2.85264 | 13254 ft | 255 kts | 214° |
| 2026-05-04 17:21 | 40.58264 | -2.87638 | 12800 ft | 252 kts | 214° |
| 2026-05-04 17:22 | 40.57157 | -2.88521 | 12697 ft | 248 kts | 214° |
| 2026-05-04 17:22 | 40.56377 | -2.89145 | 12578 ft | 247 kts | 214° |
| 2026-05-04 17:23 | 40.52431 | -2.92311 | 11987 ft | 244 kts | 214° |
| 2026-05-04 17:23 | 40.50995 | -2.93463 | 11778 ft | 244 kts | 214° |
| 2026-05-04 17:23 | 40.48122 | -2.95771 | 11348 ft | 243 kts | 214° |
| 2026-05-04 17:24 | 40.46677 | -2.96931 | 11143 ft | 243 kts | 214° |
| 2026-05-04 17:24 | 40.42348 | -3.00400 | 10488 ft | 243 kts | 214° |
| 2026-05-04 17:25 | 40.40908 | -3.01554 | 10286 ft | 243 kts | 214° |
| 2026-05-04 17:25 | 40.38044 | -3.03846 | 9851 ft | 243 kts | 214° |
| 2026-05-04 17:26 | 40.35163 | -3.06150 | 9384 ft | 242 kts | 213° |
| 2026-05-04 17:26 | 40.30925 | -3.09534 | 8741 ft | 233 kts | 214° |
| 2026-05-04 17:27 | 40.28174 | -3.11728 | 8346 ft | 234 kts | 213° |
| 2026-05-04 17:27 | 40.26186 | -3.14870 | 7926 ft | 233 kts | 263° |
| 2026-05-04 17:28 | 40.26458 | -3.19066 | 7524 ft | 232 kts | 278° |
| 2026-05-04 17:29 | 40.27337 | -3.25239 | 6910 ft | 229 kts | 278° |
| 2026-05-04 17:29 | 40.28158 | -3.31371 | 6293 ft | 228 kts | 279° |
| 2026-05-04 17:30 | 40.30751 | -3.36264 | 5690 ft | 206 kts | 307° |
| 2026-05-04 17:31 | 40.32573 | -3.38767 | 5352 ft | 176 kts | 321° |
| 2026-05-04 17:31 | 40.35285 | -3.41313 | 4898 ft | 155 kts | 318° |
| 2026-05-04 17:32 | 40.36982 | -3.43034 | 4482 ft | 154 kts | 316° |
| 2026-05-04 17:33 | 40.39461 | -3.45565 | 3879 ft | 150 kts | 317° |
| 2026-05-04 17:33 | 40.40291 | -3.46412 | 3672 ft | 153 kts | 319° |
| 2026-05-04 17:34 | 40.42762 | -3.48932 | 3078 ft | 152 kts | 316° |
| 2026-05-04 17:34 | 40.43606 | -3.49797 | 2859 ft | 157 kts | 319° |
| 2026-05-04 17:35 | 40.46142 | -3.52391 | 2230 ft | 151 kts | 317° |
| 2026-05-04 17:35 | 40.47714 | -3.53982 | 1943 ft | 133 kts | 320° |
| 2026-05-04 17:35 | 40.48285 | -3.54562 | 1956 ft | 73 kts | 322° |
| 2026-05-04 17:36 | 40.48520 | -3.54797 | 1963 ft | 12 kts | 322° |
| 2026-05-04 17:36 | 40.48595 | -3.54874 | 1966 ft | 18 kts | 322° |
| 2026-05-04 17:36 | 40.48708 | -3.55016 | 1972 ft | 27 kts | 304° |
| 2026-05-04 17:36 | 40.48810 | -3.55235 | 1977 ft | 27 kts | 290° |
| 2026-05-04 17:37 | 40.48823 | -3.55281 | 1976 ft | 1 kts | 291° |
| 2026-05-04 17:37 | 40.48830 | -3.55305 | 1976 ft | 5 kts | 290° |
| 2026-05-04 17:37 | 40.48849 | -3.55363 | 1976 ft | 9 kts | 297° |
| 2026-05-04 17:37 | 40.48885 | -3.55442 | 1976 ft | 11 kts | 308° |
| 2026-05-04 17:38 | 40.48945 | -3.55517 | 1978 ft | 13 kts | 321° |
| 2026-05-04 17:38 | 40.49024 | -3.55600 | 1980 ft | 16 kts | 322° |
| 2026-05-04 17:38 | 40.49112 | -3.55689 | 1982 ft | 16 kts | 321° |
| 2026-05-04 17:38 | 40.49190 | -3.55769 | 1982 ft | 12 kts | 322° |
| 2026-05-04 17:39 | 40.49295 | -3.55889 | 1984 ft | 8 kts | 293° |
| 2026-05-04 17:39 | 40.49301 | -3.55963 | 1983 ft | 9 kts | 272° |
| 2026-05-04 17:39 | 40.49300 | -3.56060 | 1983 ft | 12 kts | 269° |
| 2026-05-04 17:40 | 40.49301 | -3.56178 | 1976 ft | 14 kts | 269° |
| 2026-05-04 17:40 | 40.49238 | -3.56247 | 1971 ft | 14 kts | 179° |
| 2026-05-04 17:40 | 40.49136 | -3.56247 | 1969 ft | 15 kts | 180° |
| 2026-05-04 17:40 | 40.49025 | -3.56245 | 1967 ft | 17 kts | 180° |
| 2026-05-04 17:41 | 40.48917 | -3.56246 | 1964 ft | 15 kts | 180° |
| 2026-05-04 17:41 | 40.48863 | -3.56314 | 1962 ft | 12 kts | 272° |
| 2026-05-04 17:41 | 40.48864 | -3.56427 | 1960 ft | 13 kts | 270° |
| 2026-05-04 17:41 | 40.48865 | -3.56543 | 1957 ft | 11 kts | 271° |
| 2026-05-04 17:42 | 40.48898 | -3.56626 | 1956 ft | 12 kts | 338° |
| 2026-05-04 17:42 | 40.48959 | -3.56663 | 1956 ft | 8 kts | 328° |
| 2026-05-04 17:42 | 40.48992 | -3.56671 | 1954 ft | 0 kts | 357° |